sensor_id;sensor_type;location;lat;lon;timestamp;P1;durP1;ratioP1;P2;durP2;ratioP2
70744;SDS011;59284;31.390;34.904;2023-04-15T00:00:05;9.48;;;3.50;;
70744;SDS011;59284;31.390;34.904;2023-04-15T00:02:31;11.32;;;3.85;;
70744;SDS011;59284;31.390;34.904;2023-04-15T00:04:57;10.20;;;3.77;;
70744;SDS011;59284;31.390;34.904;2023-04-15T00:07:22;10.20;;;3.30;;
70744;SDS011;59284;31.390;34.904;2023-04-15T00:09:48;10.97;;;3.17;;
70744;SDS011;59284;31.390;34.904;2023-04-15T00:12:14;9.18;;;3.10;;
70744;SDS011;59284;31.390;34.904;2023-04-15T00:14:40;13.50;;;3.90;;
70744;SDS011;59284;31.390;34.904;2023-04-15T00:17:05;11.80;;;3.58;;
70744;SDS011;59284;31.390;34.904;2023-04-15T00:19:31;12.03;;;3.63;;
70744;SDS011;59284;31.390;34.904;2023-04-15T00:21:57;11.73;;;3.60;;
70744;SDS011;59284;31.390;34.904;2023-04-15T00:24:23;10.77;;;3.72;;
70744;SDS011;59284;31.390;34.904;2023-04-15T00:26:49;8.37;;;3.00;;
70744;SDS011;59284;31.390;34.904;2023-04-15T00:29:15;15.30;;;3.67;;
70744;SDS011;59284;31.390;34.904;2023-04-15T00:31:40;14.30;;;3.57;;
70744;SDS011;59284;31.390;34.904;2023-04-15T00:34:06;13.93;;;4.07;;
70744;SDS011;59284;31.390;34.904;2023-04-15T00:36:32;10.68;;;4.07;;
70744;SDS011;59284;31.390;34.904;2023-04-15T00:38:59;9.80;;;3.70;;
70744;SDS011;59284;31.390;34.904;2023-04-15T00:41:25;11.88;;;3.65;;
70744;SDS011;59284;31.390;34.904;2023-04-15T00:43:50;10.45;;;3.60;;
70744;SDS011;59284;31.390;34.904;2023-04-15T00:46:16;14.40;;;3.73;;
70744;SDS011;59284;31.390;34.904;2023-04-15T00:48:44;11.93;;;4.18;;
70744;SDS011;59284;31.390;34.904;2023-04-15T00:51:11;12.93;;;4.10;;
70744;SDS011;59284;31.390;34.904;2023-04-15T00:53:38;9.20;;;3.92;;
70744;SDS011;59284;31.390;34.904;2023-04-15T00:56:04;11.10;;;3.70;;
70744;SDS011;59284;31.390;34.904;2023-04-15T00:58:30;9.43;;;4.25;;
70744;SDS011;59284;31.390;34.904;2023-04-15T01:00:56;24.92;;;5.00;;
70744;SDS011;59284;31.390;34.904;2023-04-15T01:03:22;13.95;;;5.97;;
70744;SDS011;59284;31.390;34.904;2023-04-15T01:05:48;26.00;;;7.03;;
70744;SDS011;59284;31.390;34.904;2023-04-15T01:08:14;15.60;;;5.53;;
70744;SDS011;59284;31.390;34.904;2023-04-15T01:10:40;17.85;;;5.10;;
70744;SDS011;59284;31.390;34.904;2023-04-15T01:13:06;12.97;;;4.77;;
70744;SDS011;59284;31.390;34.904;2023-04-15T01:15:32;13.55;;;4.45;;
70744;SDS011;59284;31.390;34.904;2023-04-15T01:17:58;12.70;;;4.20;;
70744;SDS011;59284;31.390;34.904;2023-04-15T01:20:23;15.57;;;4.77;;
70744;SDS011;59284;31.390;34.904;2023-04-15T01:22:50;10.48;;;4.28;;
70744;SDS011;59284;31.390;34.904;2023-04-15T01:25:17;11.38;;;4.22;;
70744;SDS011;59284;31.390;34.904;2023-04-15T01:27:44;14.52;;;4.10;;
70744;SDS011;59284;31.390;34.904;2023-04-15T01:30:10;9.13;;;3.90;;
70744;SDS011;59284;31.390;34.904;2023-04-15T01:32:36;12.20;;;4.27;;
70744;SDS011;59284;31.390;34.904;2023-04-15T01:35:02;9.68;;;4.30;;
70744;SDS011;59284;31.390;34.904;2023-04-15T01:37:28;11.75;;;3.83;;
70744;SDS011;59284;31.390;34.904;2023-04-15T01:39:54;13.60;;;4.00;;
70744;SDS011;59284;31.390;34.904;2023-04-15T01:42:21;12.13;;;3.60;;
70744;SDS011;59284;31.390;34.904;2023-04-15T01:44:47;8.30;;;3.83;;
70744;SDS011;59284;31.390;34.904;2023-04-15T01:47:12;14.70;;;3.63;;
70744;SDS011;59284;31.390;34.904;2023-04-15T01:49:38;10.98;;;3.92;;
70744;SDS011;59284;31.390;34.904;2023-04-15T01:52:04;11.68;;;3.67;;
70744;SDS011;59284;31.390;34.904;2023-04-15T01:54:30;12.13;;;4.40;;
70744;SDS011;59284;31.390;34.904;2023-04-15T01:56:56;8.43;;;3.53;;
70744;SDS011;59284;31.390;34.904;2023-04-15T01:59:22;10.75;;;3.95;;
70744;SDS011;59284;31.390;34.904;2023-04-15T02:01:47;11.60;;;3.83;;
70744;SDS011;59284;31.390;34.904;2023-04-15T02:04:13;10.48;;;3.97;;
70744;SDS011;59284;31.390;34.904;2023-04-15T02:06:41;10.75;;;4.40;;
70744;SDS011;59284;31.390;34.904;2023-04-15T02:09:08;11.03;;;4.10;;
70744;SDS011;59284;31.390;34.904;2023-04-15T02:11:34;10.77;;;3.58;;
70744;SDS011;59284;31.390;34.904;2023-04-15T02:14:02;8.02;;;4.00;;
70744;SDS011;59284;31.390;34.904;2023-04-15T02:16:29;7.10;;;3.97;;
70744;SDS011;59284;31.390;34.904;2023-04-15T02:18:56;11.02;;;3.78;;
70744;SDS011;59284;31.390;34.904;2023-04-15T02:21:22;10.13;;;4.27;;
70744;SDS011;59284;31.390;34.904;2023-04-15T02:23:47;13.93;;;4.40;;
70744;SDS011;59284;31.390;34.904;2023-04-15T02:26:13;14.60;;;4.23;;
70744;SDS011;59284;31.390;34.904;2023-04-15T02:28:39;14.48;;;4.53;;
70744;SDS011;59284;31.390;34.904;2023-04-15T02:31:05;8.38;;;4.25;;
70744;SDS011;59284;31.390;34.904;2023-04-15T02:33:31;14.20;;;4.27;;
70744;SDS011;59284;31.390;34.904;2023-04-15T02:35:57;9.02;;;4.25;;
70744;SDS011;59284;31.390;34.904;2023-04-15T02:38:23;8.95;;;4.05;;
70744;SDS011;59284;31.390;34.904;2023-04-15T02:40:49;11.63;;;4.27;;
70744;SDS011;59284;31.390;34.904;2023-04-15T02:43:15;9.25;;;3.80;;
70744;SDS011;59284;31.390;34.904;2023-04-15T02:45:42;9.68;;;3.92;;
70744;SDS011;59284;31.390;34.904;2023-04-15T02:48:08;14.50;;;4.18;;
70744;SDS011;59284;31.390;34.904;2023-04-15T02:50:34;7.60;;;3.33;;
70744;SDS011;59284;31.390;34.904;2023-04-15T02:53:01;8.87;;;3.23;;
70744;SDS011;59284;31.390;34.904;2023-04-15T02:55:27;10.77;;;3.85;;
70744;SDS011;59284;31.390;34.904;2023-04-15T02:57:53;5.60;;;2.55;;
70744;SDS011;59284;31.390;34.904;2023-04-15T03:00:19;4.83;;;2.33;;
70744;SDS011;59284;31.390;34.904;2023-04-15T03:02:45;4.53;;;2.58;;
70744;SDS011;59284;31.390;34.904;2023-04-15T03:05:12;9.93;;;3.47;;
70744;SDS011;59284;31.390;34.904;2023-04-15T03:07:38;6.10;;;3.13;;
70744;SDS011;59284;31.390;34.904;2023-04-15T03:10:07;7.40;;;3.08;;
70744;SDS011;59284;31.390;34.904;2023-04-15T03:12:33;6.20;;;2.97;;
70744;SDS011;59284;31.390;34.904;2023-04-15T03:14:58;4.82;;;1.92;;
70744;SDS011;59284;31.390;34.904;2023-04-15T03:17:26;7.57;;;2.70;;
70744;SDS011;59284;31.390;34.904;2023-04-15T03:19:51;7.57;;;3.17;;
70744;SDS011;59284;31.390;34.904;2023-04-15T03:22:17;5.35;;;2.17;;
70744;SDS011;59284;31.390;34.904;2023-04-15T03:24:43;3.87;;;1.87;;
70744;SDS011;59284;31.390;34.904;2023-04-15T03:27:08;12.15;;;3.42;;
70744;SDS011;59284;31.390;34.904;2023-04-15T03:29:34;3.53;;;1.70;;
70744;SDS011;59284;31.390;34.904;2023-04-15T03:32:00;4.32;;;2.33;;
70744;SDS011;59284;31.390;34.904;2023-04-15T03:34:26;7.27;;;2.20;;
70744;SDS011;59284;31.390;34.904;2023-04-15T03:36:51;5.95;;;2.70;;
70744;SDS011;59284;31.390;34.904;2023-04-15T03:39:17;9.82;;;2.55;;
70744;SDS011;59284;31.390;34.904;2023-04-15T03:41:43;5.33;;;2.20;;
70744;SDS011;59284;31.390;34.904;2023-04-15T03:44:08;3.67;;;1.70;;
70744;SDS011;59284;31.390;34.904;2023-04-15T03:46:34;6.77;;;1.93;;
70744;SDS011;59284;31.390;34.904;2023-04-15T03:49:00;11.20;;;2.72;;
70744;SDS011;59284;31.390;34.904;2023-04-15T03:51:26;5.30;;;2.20;;
70744;SDS011;59284;31.390;34.904;2023-04-15T03:53:52;3.13;;;1.50;;
70744;SDS011;59284;31.390;34.904;2023-04-15T03:56:18;6.25;;;2.33;;
70744;SDS011;59284;31.390;34.904;2023-04-15T03:58:43;8.33;;;2.83;;
70744;SDS011;59284;31.390;34.904;2023-04-15T04:01:09;5.85;;;2.95;;
70744;SDS011;59284;31.390;34.904;2023-04-15T04:03:35;5.65;;;1.67;;
70744;SDS011;59284;31.390;34.904;2023-04-15T04:06:01;6.50;;;2.50;;
70744;SDS011;59284;31.390;34.904;2023-04-15T04:08:27;6.05;;;2.72;;
70744;SDS011;59284;31.390;34.904;2023-04-15T04:10:53;7.03;;;2.08;;
70744;SDS011;59284;31.390;34.904;2023-04-15T04:13:19;6.87;;;3.00;;
70744;SDS011;59284;31.390;34.904;2023-04-15T04:15:44;7.05;;;2.15;;
70744;SDS011;59284;31.390;34.904;2023-04-15T04:18:10;7.87;;;3.53;;
70744;SDS011;59284;31.390;34.904;2023-04-15T04:20:36;6.50;;;2.63;;
70744;SDS011;59284;31.390;34.904;2023-04-15T04:23:02;6.93;;;2.58;;
70744;SDS011;59284;31.390;34.904;2023-04-15T04:25:28;5.40;;;2.63;;
70744;SDS011;59284;31.390;34.904;2023-04-15T04:27:53;6.05;;;2.88;;
70744;SDS011;59284;31.390;34.904;2023-04-15T04:30:19;10.13;;;3.70;;
70744;SDS011;59284;31.390;34.904;2023-04-15T04:32:45;9.10;;;3.22;;
70744;SDS011;59284;31.390;34.904;2023-04-15T04:35:11;8.77;;;3.27;;
70744;SDS011;59284;31.390;34.904;2023-04-15T04:37:36;7.97;;;3.17;;
70744;SDS011;59284;31.390;34.904;2023-04-15T04:40:02;6.10;;;2.53;;
70744;SDS011;59284;31.390;34.904;2023-04-15T04:42:28;7.93;;;3.15;;
70744;SDS011;59284;31.390;34.904;2023-04-15T04:44:54;8.23;;;2.78;;
70744;SDS011;59284;31.390;34.904;2023-04-15T04:47:20;4.43;;;2.50;;
70744;SDS011;59284;31.390;34.904;2023-04-15T04:49:46;6.78;;;2.35;;
70744;SDS011;59284;31.390;34.904;2023-04-15T04:52:11;7.07;;;3.25;;
70744;SDS011;59284;31.390;34.904;2023-04-15T04:54:37;5.53;;;2.90;;
70744;SDS011;59284;31.390;34.904;2023-04-15T04:57:03;12.30;;;3.60;;
70744;SDS011;59284;31.390;34.904;2023-04-15T04:59:28;6.10;;;3.33;;
70744;SDS011;59284;31.390;34.904;2023-04-15T05:01:54;9.23;;;3.38;;
70744;SDS011;59284;31.390;34.904;2023-04-15T05:04:21;7.03;;;3.20;;
70744;SDS011;59284;31.390;34.904;2023-04-15T05:06:46;10.95;;;4.68;;
70744;SDS011;59284;31.390;34.904;2023-04-15T05:09:12;7.05;;;3.05;;
70744;SDS011;59284;31.390;34.904;2023-04-15T05:11:38;4.53;;;2.00;;
70744;SDS011;59284;31.390;34.904;2023-04-15T05:14:03;11.32;;;2.58;;
70744;SDS011;59284;31.390;34.904;2023-04-15T05:16:29;5.57;;;2.63;;
70744;SDS011;59284;31.390;34.904;2023-04-15T05:18:55;6.35;;;2.33;;
70744;SDS011;59284;31.390;34.904;2023-04-15T05:21:20;5.00;;;2.90;;
70744;SDS011;59284;31.390;34.904;2023-04-15T05:23:46;5.93;;;2.65;;
70744;SDS011;59284;31.390;34.904;2023-04-15T05:26:12;10.20;;;3.23;;
70744;SDS011;59284;31.390;34.904;2023-04-15T05:28:38;10.23;;;3.45;;
70744;SDS011;59284;31.390;34.904;2023-04-15T05:31:03;7.78;;;3.08;;
70744;SDS011;59284;31.390;34.904;2023-04-15T05:33:30;6.50;;;3.13;;
70744;SDS011;59284;31.390;34.904;2023-04-15T05:35:55;8.98;;;2.60;;
70744;SDS011;59284;31.390;34.904;2023-04-15T05:38:21;10.75;;;3.28;;
70744;SDS011;59284;31.390;34.904;2023-04-15T05:40:47;5.60;;;3.33;;
70744;SDS011;59284;31.390;34.904;2023-04-15T05:43:13;15.85;;;3.70;;
70744;SDS011;59284;31.390;34.904;2023-04-15T05:45:38;8.93;;;2.93;;
70744;SDS011;59284;31.390;34.904;2023-04-15T05:48:04;9.43;;;3.30;;
70744;SDS011;59284;31.390;34.904;2023-04-15T05:50:30;8.68;;;2.85;;
70744;SDS011;59284;31.390;34.904;2023-04-15T05:52:56;11.80;;;3.70;;
70744;SDS011;59284;31.390;34.904;2023-04-15T05:55:21;7.60;;;2.75;;
70744;SDS011;59284;31.390;34.904;2023-04-15T05:57:47;7.53;;;3.60;;
70744;SDS011;59284;31.390;34.904;2023-04-15T06:00:13;10.10;;;3.47;;
70744;SDS011;59284;31.390;34.904;2023-04-15T06:02:39;9.77;;;3.10;;
70744;SDS011;59284;31.390;34.904;2023-04-15T06:05:05;10.30;;;3.83;;
70744;SDS011;59284;31.390;34.904;2023-04-15T06:07:36;10.45;;;3.97;;
70744;SDS011;59284;31.390;34.904;2023-04-15T06:10:03;10.68;;;3.50;;
70744;SDS011;59284;31.390;34.904;2023-04-15T06:12:29;6.40;;;1.63;;
70744;SDS011;59284;31.390;34.904;2023-04-15T06:14:55;4.10;;;1.33;;
70744;SDS011;59284;31.390;34.904;2023-04-15T06:17:21;5.00;;;2.15;;
70744;SDS011;59284;31.390;34.904;2023-04-15T06:19:47;5.10;;;1.92;;
70744;SDS011;59284;31.390;34.904;2023-04-15T06:22:14;10.30;;;2.07;;
70744;SDS011;59284;31.390;34.904;2023-04-15T06:24:40;5.22;;;2.63;;
70744;SDS011;59284;31.390;34.904;2023-04-15T06:27:06;5.93;;;2.10;;
70744;SDS011;59284;31.390;34.904;2023-04-15T06:29:32;3.70;;;1.83;;
70744;SDS011;59284;31.390;34.904;2023-04-15T06:31:57;7.32;;;2.40;;
70744;SDS011;59284;31.390;34.904;2023-04-15T06:34:23;3.90;;;2.00;;
70744;SDS011;59284;31.390;34.904;2023-04-15T06:36:49;5.18;;;2.17;;
70744;SDS011;59284;31.390;34.904;2023-04-15T06:39:15;8.48;;;3.13;;
70744;SDS011;59284;31.390;34.904;2023-04-15T06:41:41;6.47;;;2.70;;
70744;SDS011;59284;31.390;34.904;2023-04-15T06:44:07;6.43;;;2.92;;
70744;SDS011;59284;31.390;34.904;2023-04-15T06:46:33;11.05;;;3.03;;
70744;SDS011;59284;31.390;34.904;2023-04-15T06:48:58;11.20;;;2.67;;
70744;SDS011;59284;31.390;34.904;2023-04-15T06:51:24;7.65;;;3.15;;
70744;SDS011;59284;31.390;34.904;2023-04-15T06:53:51;5.97;;;2.97;;
70744;SDS011;59284;31.390;34.904;2023-04-15T06:56:16;6.73;;;2.80;;
70744;SDS011;59284;31.390;34.904;2023-04-15T06:58:42;9.07;;;4.15;;
70744;SDS011;59284;31.390;34.904;2023-04-15T07:01:08;8.77;;;3.90;;
70744;SDS011;59284;31.390;34.904;2023-04-15T07:03:33;6.57;;;2.95;;
70744;SDS011;59284;31.390;34.904;2023-04-15T07:05:59;7.17;;;2.93;;
70744;SDS011;59284;31.390;34.904;2023-04-15T07:08:26;7.25;;;2.40;;
70744;SDS011;59284;31.390;34.904;2023-04-15T07:10:51;11.35;;;3.05;;
70744;SDS011;59284;31.390;34.904;2023-04-15T07:13:18;7.28;;;2.03;;
70744;SDS011;59284;31.390;34.904;2023-04-15T07:15:43;6.33;;;2.83;;
70744;SDS011;59284;31.390;34.904;2023-04-15T07:18:09;5.50;;;2.53;;
70744;SDS011;59284;31.390;34.904;2023-04-15T07:20:35;8.03;;;2.10;;
70744;SDS011;59284;31.390;34.904;2023-04-15T07:23:01;5.82;;;1.92;;
70744;SDS011;59284;31.390;34.904;2023-04-15T07:25:26;6.27;;;2.23;;
70744;SDS011;59284;31.390;34.904;2023-04-15T07:27:52;6.20;;;2.75;;
70744;SDS011;59284;31.390;34.904;2023-04-15T07:30:18;8.13;;;2.30;;
70744;SDS011;59284;31.390;34.904;2023-04-15T07:32:44;8.03;;;2.90;;
70744;SDS011;59284;31.390;34.904;2023-04-15T07:35:09;8.20;;;2.20;;
70744;SDS011;59284;31.390;34.904;2023-04-15T07:37:35;7.30;;;2.53;;
70744;SDS011;59284;31.390;34.904;2023-04-15T07:40:01;10.15;;;2.60;;
70744;SDS011;59284;31.390;34.904;2023-04-15T07:42:29;7.10;;;2.25;;
70744;SDS011;59284;31.390;34.904;2023-04-15T07:44:54;7.60;;;2.67;;
70744;SDS011;59284;31.390;34.904;2023-04-15T07:47:21;7.73;;;2.43;;
70744;SDS011;59284;31.390;34.904;2023-04-15T07:49:46;8.52;;;2.60;;
70744;SDS011;59284;31.390;34.904;2023-04-15T07:52:12;6.03;;;2.40;;
70744;SDS011;59284;31.390;34.904;2023-04-15T07:54:38;9.55;;;2.80;;
70744;SDS011;59284;31.390;34.904;2023-04-15T07:57:03;6.03;;;2.37;;
70744;SDS011;59284;31.390;34.904;2023-04-15T07:59:29;6.77;;;2.63;;
70744;SDS011;59284;31.390;34.904;2023-04-15T08:01:57;7.00;;;2.78;;
70744;SDS011;59284;31.390;34.904;2023-04-15T08:04:23;6.47;;;2.80;;
70744;SDS011;59284;31.390;34.904;2023-04-15T08:06:49;10.20;;;2.63;;
70744;SDS011;59284;31.390;34.904;2023-04-15T08:09:16;8.95;;;2.70;;
70744;SDS011;59284;31.390;34.904;2023-04-15T08:11:42;11.95;;;2.95;;
70744;SDS011;59284;31.390;34.904;2023-04-15T08:14:08;7.57;;;2.60;;
70744;SDS011;59284;31.390;34.904;2023-04-15T08:16:33;9.45;;;3.10;;
70744;SDS011;59284;31.390;34.904;2023-04-15T08:18:59;11.27;;;4.60;;
70744;SDS011;59284;31.390;34.904;2023-04-15T08:21:25;10.57;;;4.88;;
70744;SDS011;59284;31.390;34.904;2023-04-15T08:23:51;12.98;;;5.88;;
70744;SDS011;59284;31.390;34.904;2023-04-15T08:26:18;14.13;;;6.07;;
70744;SDS011;59284;31.390;34.904;2023-04-15T08:28:45;13.80;;;6.30;;
70744;SDS011;59284;31.390;34.904;2023-04-15T08:31:15;13.50;;;6.40;;
70744;SDS011;59284;31.390;34.904;2023-04-15T08:33:41;15.35;;;6.65;;
70744;SDS011;59284;31.390;34.904;2023-04-15T08:36:07;11.83;;;6.10;;
70744;SDS011;59284;31.390;34.904;2023-04-15T08:38:33;15.77;;;6.13;;
70744;SDS011;59284;31.390;34.904;2023-04-15T08:40:59;17.63;;;6.32;;
70744;SDS011;59284;31.390;34.904;2023-04-15T08:43:32;15.32;;;6.70;;
70744;SDS011;59284;31.390;34.904;2023-04-15T08:45:59;12.95;;;7.07;;
70744;SDS011;59284;31.390;34.904;2023-04-15T08:48:29;21.90;;;7.33;;
70744;SDS011;59284;31.390;34.904;2023-04-15T08:50:57;16.70;;;5.97;;
70744;SDS011;59284;31.390;34.904;2023-04-15T08:53:23;14.35;;;6.53;;
70744;SDS011;59284;31.390;34.904;2023-04-15T08:55:50;14.20;;;6.40;;
70744;SDS011;59284;31.390;34.904;2023-04-15T08:58:16;11.80;;;6.22;;
70744;SDS011;59284;31.390;34.904;2023-04-15T09:00:43;12.13;;;5.90;;
70744;SDS011;59284;31.390;34.904;2023-04-15T09:03:10;14.25;;;6.28;;
70744;SDS011;59284;31.390;34.904;2023-04-15T09:05:36;14.50;;;5.93;;
70744;SDS011;59284;31.390;34.904;2023-04-15T09:08:02;13.40;;;5.93;;
70744;SDS011;59284;31.390;34.904;2023-04-15T09:10:28;15.55;;;6.28;;
70744;SDS011;59284;31.390;34.904;2023-04-15T09:12:55;15.20;;;7.57;;
70744;SDS011;59284;31.390;34.904;2023-04-15T09:15:22;11.90;;;6.43;;
70744;SDS011;59284;31.390;34.904;2023-04-15T09:17:49;17.98;;;7.22;;
70744;SDS011;59284;31.390;34.904;2023-04-15T09:20:15;11.13;;;6.85;;
70744;SDS011;59284;31.390;34.904;2023-04-15T09:22:45;11.67;;;7.03;;
70744;SDS011;59284;31.390;34.904;2023-04-15T09:27:53;12.05;;;6.43;;
70744;SDS011;59284;31.390;34.904;2023-04-15T09:30:20;13.68;;;6.85;;
70744;SDS011;59284;31.390;34.904;2023-04-15T09:32:48;17.00;;;6.63;;
70744;SDS011;59284;31.390;34.904;2023-04-15T09:35:16;15.63;;;6.90;;
70744;SDS011;59284;31.390;34.904;2023-04-15T09:37:41;14.98;;;6.75;;
70744;SDS011;59284;31.390;34.904;2023-04-15T09:40:07;14.95;;;5.85;;
70744;SDS011;59284;31.390;34.904;2023-04-15T09:42:34;12.73;;;5.33;;
70744;SDS011;59284;31.390;34.904;2023-04-15T09:45:08;12.75;;;5.03;;
70744;SDS011;59284;31.390;34.904;2023-04-15T09:47:35;11.07;;;5.43;;
70744;SDS011;59284;31.390;34.904;2023-04-15T09:50:01;13.52;;;5.85;;
70744;SDS011;59284;31.390;34.904;2023-04-15T09:52:27;13.03;;;5.67;;
70744;SDS011;59284;31.390;34.904;2023-04-15T09:54:54;9.40;;;5.17;;
70744;SDS011;59284;31.390;34.904;2023-04-15T09:57:21;12.25;;;5.07;;
70744;SDS011;59284;31.390;34.904;2023-04-15T09:59:48;12.15;;;5.22;;
70744;SDS011;59284;31.390;34.904;2023-04-15T10:02:14;13.43;;;5.10;;
70744;SDS011;59284;31.390;34.904;2023-04-15T10:04:40;13.15;;;5.55;;
70744;SDS011;59284;31.390;34.904;2023-04-15T10:07:07;15.10;;;4.70;;
70744;SDS011;59284;31.390;34.904;2023-04-15T10:09:40;15.40;;;5.82;;
70744;SDS011;59284;31.390;34.904;2023-04-15T10:12:05;9.70;;;4.82;;
70744;SDS011;59284;31.390;34.904;2023-04-15T10:14:32;13.83;;;4.70;;
70744;SDS011;59284;31.390;34.904;2023-04-15T10:17:02;12.05;;;4.90;;
70744;SDS011;59284;31.390;34.904;2023-04-15T10:19:33;11.48;;;4.70;;
70744;SDS011;59284;31.390;34.904;2023-04-15T10:22:01;11.48;;;4.18;;
70744;SDS011;59284;31.390;34.904;2023-04-15T10:24:27;11.32;;;4.22;;
70744;SDS011;59284;31.390;34.904;2023-04-15T10:26:56;13.20;;;4.20;;
70744;SDS011;59284;31.390;34.904;2023-04-15T10:29:23;9.63;;;4.35;;
70744;SDS011;59284;31.390;34.904;2023-04-15T10:31:52;10.75;;;3.80;;
70744;SDS011;59284;31.390;34.904;2023-04-15T10:34:18;10.40;;;4.43;;
70744;SDS011;59284;31.390;34.904;2023-04-15T10:36:44;8.82;;;4.13;;
70744;SDS011;59284;31.390;34.904;2023-04-15T10:42:16;8.85;;;3.95;;
70744;SDS011;59284;31.390;34.904;2023-04-15T10:44:48;10.65;;;5.15;;
70744;SDS011;59284;31.390;34.904;2023-04-15T10:47:18;10.57;;;4.43;;
70744;SDS011;59284;31.390;34.904;2023-04-15T10:49:46;10.65;;;4.82;;
70744;SDS011;59284;31.390;34.904;2023-04-15T10:52:13;11.77;;;4.80;;
70744;SDS011;59284;31.390;34.904;2023-04-15T10:54:40;11.27;;;5.05;;
70744;SDS011;59284;31.390;34.904;2023-04-15T10:57:07;16.10;;;5.45;;
70744;SDS011;59284;31.390;34.904;2023-04-15T11:02:47;11.00;;;4.90;;
70744;SDS011;59284;31.390;34.904;2023-04-15T11:08:06;13.63;;;4.80;;
70744;SDS011;59284;31.390;34.904;2023-04-15T11:15:28;11.73;;;4.78;;
70744;SDS011;59284;31.390;34.904;2023-04-15T11:17:57;10.18;;;4.95;;
70744;SDS011;59284;31.390;34.904;2023-04-15T11:20:24;12.02;;;4.68;;
70744;SDS011;59284;31.390;34.904;2023-04-15T11:22:51;11.73;;;4.73;;
70744;SDS011;59284;31.390;34.904;2023-04-15T11:25:25;12.45;;;5.15;;
70744;SDS011;59284;31.390;34.904;2023-04-15T11:27:52;14.00;;;5.28;;
70744;SDS011;59284;31.390;34.904;2023-04-15T11:30:22;14.15;;;5.82;;
70744;SDS011;59284;31.390;34.904;2023-04-15T11:32:49;9.60;;;5.32;;
70744;SDS011;59284;31.390;34.904;2023-04-15T11:35:16;14.80;;;5.80;;
70744;SDS011;59284;31.390;34.904;2023-04-15T11:37:43;12.63;;;6.57;;
70744;SDS011;59284;31.390;34.904;2023-04-15T11:40:09;9.80;;;4.57;;
70744;SDS011;59284;31.390;34.904;2023-04-15T11:42:35;10.32;;;5.47;;
70744;SDS011;59284;31.390;34.904;2023-04-15T11:45:11;10.37;;;5.60;;
70744;SDS011;59284;31.390;34.904;2023-04-15T11:47:38;9.82;;;5.25;;
70744;SDS011;59284;31.390;34.904;2023-04-15T11:52:56;10.38;;;5.85;;
70744;SDS011;59284;31.390;34.904;2023-04-15T11:55:23;10.90;;;5.05;;
70744;SDS011;59284;31.390;34.904;2023-04-15T11:58:09;12.80;;;5.40;;
70744;SDS011;59284;31.390;34.904;2023-04-15T12:00:36;12.45;;;5.45;;
70744;SDS011;59284;31.390;34.904;2023-04-15T12:11:32;11.90;;;4.90;;
70744;SDS011;59284;31.390;34.904;2023-04-15T12:16:31;11.50;;;5.38;;
70744;SDS011;59284;31.390;34.904;2023-04-15T12:18:58;12.90;;;5.20;;
70744;SDS011;59284;31.390;34.904;2023-04-15T12:21:25;11.40;;;4.93;;
70744;SDS011;59284;31.390;34.904;2023-04-15T12:23:54;11.33;;;5.33;;
70744;SDS011;59284;31.390;34.904;2023-04-15T12:26:27;10.55;;;4.97;;
70744;SDS011;59284;31.390;34.904;2023-04-15T12:29:04;12.18;;;4.68;;
70744;SDS011;59284;31.390;34.904;2023-04-15T12:31:31;12.93;;;4.70;;
70744;SDS011;59284;31.390;34.904;2023-04-15T12:33:57;9.27;;;4.13;;
70744;SDS011;59284;31.390;34.904;2023-04-15T12:36:24;13.43;;;5.40;;
70744;SDS011;59284;31.390;34.904;2023-04-15T12:38:50;13.30;;;4.28;;
70744;SDS011;59284;31.390;34.904;2023-04-15T12:41:16;11.35;;;4.75;;
70744;SDS011;59284;31.390;34.904;2023-04-15T12:43:45;12.17;;;4.97;;
70744;SDS011;59284;31.390;34.904;2023-04-15T12:46:11;10.85;;;4.63;;
70744;SDS011;59284;31.390;34.904;2023-04-15T12:48:37;15.10;;;5.00;;
70744;SDS011;59284;31.390;34.904;2023-04-15T12:51:04;12.48;;;4.32;;
70744;SDS011;59284;31.390;34.904;2023-04-15T12:53:30;11.40;;;4.80;;
70744;SDS011;59284;31.390;34.904;2023-04-15T12:55:56;13.15;;;5.10;;
70744;SDS011;59284;31.390;34.904;2023-04-15T12:58:21;11.68;;;4.47;;
70744;SDS011;59284;31.390;34.904;2023-04-15T13:00:47;11.93;;;4.83;;
70744;SDS011;59284;31.390;34.904;2023-04-15T13:03:14;10.00;;;5.20;;
70744;SDS011;59284;31.390;34.904;2023-04-15T13:05:40;11.40;;;5.47;;
70744;SDS011;59284;31.390;34.904;2023-04-15T13:08:06;10.90;;;6.25;;
70744;SDS011;59284;31.390;34.904;2023-04-15T13:10:32;14.60;;;7.20;;
70744;SDS011;59284;31.390;34.904;2023-04-15T13:13:00;14.43;;;7.25;;
70744;SDS011;59284;31.390;34.904;2023-04-15T13:15:27;16.58;;;7.00;;
70744;SDS011;59284;31.390;34.904;2023-04-15T13:17:52;10.60;;;6.03;;
70744;SDS011;59284;31.390;34.904;2023-04-15T13:20:18;16.75;;;7.95;;
70744;SDS011;59284;31.390;34.904;2023-04-15T13:22:44;13.77;;;6.93;;
70744;SDS011;59284;31.390;34.904;2023-04-15T13:25:10;12.60;;;6.30;;
70744;SDS011;59284;31.390;34.904;2023-04-15T13:27:36;11.68;;;6.72;;
70744;SDS011;59284;31.390;34.904;2023-04-15T13:30:02;13.38;;;7.75;;
70744;SDS011;59284;31.390;34.904;2023-04-15T13:32:29;15.95;;;7.20;;
70744;SDS011;59284;31.390;34.904;2023-04-15T13:34:55;16.37;;;7.17;;
70744;SDS011;59284;31.390;34.904;2023-04-15T13:37:25;15.80;;;6.95;;
70744;SDS011;59284;31.390;34.904;2023-04-15T13:39:51;16.20;;;7.13;;
70744;SDS011;59284;31.390;34.904;2023-04-15T13:42:17;13.40;;;7.67;;
70744;SDS011;59284;31.390;34.904;2023-04-15T13:44:43;12.07;;;6.50;;
70744;SDS011;59284;31.390;34.904;2023-04-15T13:47:09;12.00;;;6.93;;
70744;SDS011;59284;31.390;34.904;2023-04-15T13:49:35;15.53;;;7.60;;
70744;SDS011;59284;31.390;34.904;2023-04-15T13:52:00;14.23;;;7.20;;
70744;SDS011;59284;31.390;34.904;2023-04-15T13:54:26;14.40;;;6.90;;
70744;SDS011;59284;31.390;34.904;2023-04-15T13:56:53;12.38;;;6.38;;
70744;SDS011;59284;31.390;34.904;2023-04-15T13:59:21;15.32;;;7.32;;
70744;SDS011;59284;31.390;34.904;2023-04-15T14:01:47;13.73;;;6.27;;
70744;SDS011;59284;31.390;34.904;2023-04-15T14:04:12;12.85;;;6.95;;
70744;SDS011;59284;31.390;34.904;2023-04-15T14:06:38;10.57;;;6.13;;
70744;SDS011;59284;31.390;34.904;2023-04-15T14:09:04;9.07;;;5.00;;
70744;SDS011;59284;31.390;34.904;2023-04-15T14:11:30;14.90;;;5.83;;
70744;SDS011;59284;31.390;34.904;2023-04-15T14:13:55;10.75;;;6.10;;
70744;SDS011;59284;31.390;34.904;2023-04-15T14:16:21;10.52;;;5.03;;
70744;SDS011;59284;31.390;34.904;2023-04-15T14:18:47;14.20;;;6.20;;
70744;SDS011;59284;31.390;34.904;2023-04-15T14:21:13;10.30;;;5.75;;
70744;SDS011;59284;31.390;34.904;2023-04-15T14:23:39;10.20;;;5.27;;
70744;SDS011;59284;31.390;34.904;2023-04-15T14:26:05;12.07;;;5.50;;
70744;SDS011;59284;31.390;34.904;2023-04-15T14:28:30;9.18;;;5.07;;
70744;SDS011;59284;31.390;34.904;2023-04-15T14:30:56;11.17;;;4.97;;
70744;SDS011;59284;31.390;34.904;2023-04-15T14:33:22;11.93;;;5.22;;
70744;SDS011;59284;31.390;34.904;2023-04-15T14:35:48;6.37;;;4.20;;
70744;SDS011;59284;31.390;34.904;2023-04-15T14:38:14;7.78;;;4.43;;
70744;SDS011;59284;31.390;34.904;2023-04-15T14:40:40;14.18;;;5.13;;
70744;SDS011;59284;31.390;34.904;2023-04-15T14:43:05;11.17;;;4.50;;
70744;SDS011;59284;31.390;34.904;2023-04-15T14:45:31;9.38;;;4.63;;
70744;SDS011;59284;31.390;34.904;2023-04-15T14:47:57;9.80;;;4.60;;
70744;SDS011;59284;31.390;34.904;2023-04-15T14:50:23;12.03;;;5.20;;